Station: Andamooka

  Atmospheric Gas Attenuation - ITU Rec 676-11   --------------- db/100km ---------------
Date Time Temp RH % AH g/m3 Dew Point Wind Direction Speed kph Gust kph Barometer mB Rainfall Since 9am 24GHz 47GHz 76GHz 122GHz 134GHz 241GHz
14 09:00 16.8 58 8.29 8.6 6 1013.1 0 18.8 24.6 37.1 97.4 90.8 312.2
13 09:00 13.8 81 9.65 10.6 0 1013.1 0 21.8 27.6 44.1 115.9 112.5 387.9
12 09:00 12.1 78 8.37 8.5 4 1013.1 0 19.2 26.0 39.7 104.2 97.5 335.0
11 09:00 15 58 7.44 6.8 9 1013.1 0 17.1 23.7 34.7 90.9 82.1 281.7
10 09:00 14.6 54 6.76 5.6 4 1013.1 0 15.6 22.8 32.3 84.5 74.2 253.6
09 09:00 12 76 8.1 7.9 0 1013.1 0 18.6 25.6 38.7 101.4 94.0 322.8
08 09:00 10 83 7.8 7.3 0 1013.1 0 18.1 25.7 38.4 100.7 92.4 316.9
07 09:00 10.3 89 8.53 8.5 6 1013.1 0 19.6 26.8 41.3 108.4 102.0 350.6
06 09:00 10 100 9.4 10 19 1013.1 0 21.5 28.4 45.2 118.8 114.7 394.9
05 09:00 10.8 87 8.6 8.8 9 1013.1 2 19.7 26.8 41.3 108.5 102.3 351.7
04 09:00 9.8 96 8.91 9.2 11 1013.1 2 20.5 27.6 43.2 113.5 108.0 371.5
03 09:00 10.3 62 5.94 3.5 9 1013.1 0 14.1 22.6 31.0 80.8 67.9 231.2
01 09:00 13.1 84 9.59 10.4 6 1013.1 0 21.7 27.7 44.2 116.3 112.7 388.5
31 09:00 9.9 67 6.26 4 6 1013.1 4 14.8 23.2 32.3 84.5 72.3 246.5
30 09:00 16.5 94 13.2 15.5 4 1013.1 3 29.3 32.9 57.8 152.4 158.5 548.7
29 09:00 14.9 47 5.99 3.8 11 1013.1 0 14.0 21.6 29.4 76.8 64.7 220.4
28 09:00 13.2 51 5.86 3.4 0 1013.1 0 13.8 21.8 29.6 77.1 64.5 219.6
26 09:00 15.8 46 6.19 4.2 6 1013.1 0 14.4 21.7 29.8 77.8 66.3 226.2
25 09:00 17.4 46 6.82 5.7 11 1013.1 0 15.7 22.2 31.5 82.2 72.3 247.5
24 09:00 14.1 50 6.07 3.8 7 1013.1 0 14.2 21.9 30.0 78.3 66.3 225.9
23 09:00 11.8 52 5.47 2.3 6 1013.1 0 13.0 21.6 28.7 74.7 60.9 206.9
22 09:00 11.3 62 6.33 4.4 4 1013.1 0 14.9 23.0 32.0 83.7 71.9 245.3
21 09:00 12.8 70 7.84 7.5 15 1013.1 0 18.0 25.0 37.2 97.6 89.6 307.7
20 09:00 12.8 61 6.83 5.6 19 1013.1 0 15.9 23.4 33.3 87.2 76.7 262.5
19 09:00 10.8 47 4.65 0 9 1013.1 0 11.3 20.6 26.1 67.7 51.9 175.0
18 09:00 14.8 63 7.98 7.8 9 1013.1 0 18.2 24.6 36.9 96.6 89.1 306.2
17 09:00 15.5 44 5.82 3.5 19 1013.1 0 13.6 21.2 28.6 74.6 62.2 211.8
16 09:00 17.2 50 7.32 6.7 11 1013.1 0 16.7 23.0 33.3 87.3 78.4 269.0
15 09:00 17.8 51 7.74 7.5 9 1013.1 0 17.6 23.5 34.6 90.7 82.9 284.7
14 09:00 17 46 6.66 5.4 4 1013.1 0 15.3 22.1 31.0 81.1 70.8 242.1
13 09:00 15.8 57 7.67 7.4 6 1013.1 0 17.5 23.9 35.2 92.3 84.1 288.8
12 09:00 14.6 75 9.39 10.2 11 1013.1 0 21.2 26.9 42.6 111.9 107.8 371.7
11 09:00 16 59 8.04 8.1 4 1013.1 0 18.3 24.4 36.5 95.8 88.5 304.3
09 09:00 18.3 48 7.5 7.2 11 1013.1 0 17.1 23.0 33.5 87.8 79.5 272.8
08 09:00 20 43 7.43 7.3 20 1013.1 0 16.8 22.5 32.6 85.3 77.0 264.3
07 09:00 17.9 45 6.87 5.9 20 1013.1 0 15.7 22.2 31.5 82.2 72.4 248.0
06 09:00 17.6 51 7.65 7.3 11 1013.1 0 17.4 23.4 34.4 90.1 82.0 281.6
05 09:00 16 54 7.36 6.9 11 1013.1 0 16.9 23.4 34.0 89.0 80.1 274.7
04 09:00 16.5 37 5.2 2 11 1013.1 0 12.3 20.1 26.2 68.0 54.4 184.6
03 09:00 16.8 47 6.72 5.4 15 1013.1 0 15.5 22.2 31.3 81.9 71.7 245.1
02 09:00 15.8 42 5.65 3.1 20 1013.1 0 13.2 20.9 27.9 72.8 60.0 204.2
01 09:00 15.3 43 5.62 2.9 9 1013.1 0 13.2 21.0 28.0 72.9 60.0 204.2
30 09:00 17.7 46 6.94 6.1 19 1013.1 0 15.9 22.3 31.8 83.1 73.4 251.5
29 09:00 17.5 28 4.17 -1.1 4 1013.1 0 10.1 18.6 22.5 58.2 42.7 143.3
28 09:00 16.6 44 6.22 4.3 0 1013.1 0 14.4 21.5 29.6 77.3 66.0 225.2
27 09:00 14.8 44 5.57 2.8 2 1013.1 0 13.1 21.0 28.0 72.9 59.8 203.4
26 09:00 16 53 7.22 6.6 17 1013.1 0 16.6 23.1 33.5 87.6 78.4 268.7
25 09:00 13.8 50 5.96 3.7 15 1013.1 0 14.0 21.8 29.7 77.5 65.2 222.1
24 09:00 14.3 52 6.39 4.6 33 1013.1 0 14.9 22.3 31.1 81.2 69.9 238.8
23 09:00 22 29 5.63 3.3 7 1013.1 0 13.0 19.5 25.9 67.3 55.4 188.6
22 09:00 20.5 34 6.05 4.2 6 1013.1 0 13.9 20.4 27.7 72.2 61.0 208.1
21 09:00 19 40 6.52 5.3 19 1013.1 0 15.0 21.4 29.8 77.8 67.4 230.6
20 09:00 16.1 53 7.26 6.5 19 1013.1 0 16.6 23.2 33.6 87.9 78.8 270.1
19 09:00 17.5 21 3.13 -5 22 1013.1 0 7.9 17.2 19.3 49.6 31.9 105.5
18 09:00 17 51 7.38 7 26 1013.1 0 16.9 23.1 33.6 88.1 79.4 272.2
17 09:00 18.4 56 8.81 9.5 22 1013.1 0 19.8 24.9 38.4 100.7 95.4 328.5
16 09:00 19.5 51 8.56 9.3 9 1013.1 0 19.2 24.2 36.9 96.8 91.0 313.3
15 09:00 21.3 30 5.59 3.3 6 1013.1 0 12.9 19.6 25.9 67.5 55.5 188.7
14 09:00 19.5 43 7.22 6.6 4 1013.1 0 16.4 22.3 32.1 83.9 75.0 257.3
13 09:00 18 53 8.14 8.3 4 1013.1 0 18.4 24.0 36.0 94.4 87.6 301.0
12 09:00 18 57 8.75 9.5 20 1013.1 0 19.7 24.9 38.3 100.6 95.1 327.5
11 09:00 16.5 52 7.3 6.6 20 1013.1 0 16.7 23.1 33.6 87.8 78.9 270.5
10 09:00 16.3 47 6.52 5.2 11 1013.1 0 15.1 22.0 30.8 80.5 69.7 238.4
09 09:00 16.3 100 13.87 16.3 28 1013.1 0 30.8 34.2 61.0 161.0 169.0 585.2
08 09:00 18.8 55 8.86 9.6 11 1013.1 0 19.9 24.9 38.4 100.7 95.5 329.1
07 09:00 18.6 64 10.19 11.7 9 1013.1 22.7 27.0 43.6 114.7 112.8 389.4
06 09:00 17 52 7.52 7.2 15 1013.1 0 17.1 23.3 34.2 89.4 81.0 278.1
05 09:00 16 60 8.17 8.3 9 1013.1 0 18.6 24.6 37.0 97.1 90.2 310.0
04 09:00 16.8 63 9.01 9.8 22 1013.1 0 20.3 25.7 39.9 104.8 99.9 344.2
03 09:00 16.1 66 9.05 9.8 19 1013.1 0 20.4 25.9 40.4 106.1 101.3 349.1
02 09:00 14.9 69 8.79 9.3 6 1013.1 0 19.9 25.9 40.0 105.0 99.5 342.4
01 09:00 24.8 77 17.53 20.5 9 1013.1 0 37.9 37.4 70.5 186.5 203.0 705.0
31 09:00 24.1 77 16.85 19.8 6 1013.1 0 36.5 36.4 68.1 180.0 194.8 676.2
30 09:00 25.7 52 12.45 15.3 4 1013.1 0 27.1 28.4 48.4 127.6 130.8 453.4
29 09:00 23.8 27 5.81 3.9 6 1013.1 0 13.3 19.4 25.9 67.4 56.1 191.2
28 09:00 21 40 7.33 6.9 19 1013.1 0 16.6 22.1 31.9 83.4 74.9 257.1
26 09:00 20.3 44 7.74 7.7 15 1013.1 0 17.5 22.8 33.6 87.9 80.3 276.0
25 09:00 18.2 37 5.75 3.5 15 1013.1 0 13.4 20.5 27.5 71.5 59.4 202.2
24 09:00 17.2 51 7.47 7.2 30 1013.1 0 17.0 23.2 33.9 88.7 80.2 275.3
23 09:00 18.6 50 7.96 8.1 28 1013.1 0 18.0 23.6 35.1 92.0 84.7 291.1
22 09:00 19.3 24 3.98 -1.9 11 1013.1 0 9.6 18.0 21.4 55.4 39.8 133.4
21 09:00 16.8 34 4.86 0.9 15 1013.1 0 11.6 19.6 24.9 64.7 50.5 170.7
20 09:00 18.1 45 6.95 6.2 46 1013.1 0 15.9 22.2 31.7 82.8 73.2 250.7
19 09:00 23.3 30 6.27 4.9 19 1013.1 0 14.3 20.1 27.5 71.7 61.3 209.4
18 09:00 28.8 49 13.92 17 6 1013.1 0 29.9 29.7 52.2 137.6 144.1 500.3
17 09:00 29.1 47 13.58 16.7 0 1013.1 0 29.2 29.1 50.7 133.6 139.3 483.4
16 09:00 30 34 10.31 12.8 6 1013.1 0 22.4 24.0 38.3 100.7 99.0 342.6
15 09:00 30 36 10.92 13.5 6 1013.1 0 23.6 24.9 40.4 106.3 105.9 366.8
14 09:00 31.4 22 7.2 7.5 6 1013.1 0 15.9 19.6 27.7 72.5 64.7 222.2
13 09:00 29 22 6.32 5.5 6 1013.1 0 14.2 19.0 25.9 67.4 57.7 197.4
12 09:00 28.4 35 9.73 11.6 0 1013.1 0 21.2 23.6 37.0 97.3 94.4 326.2
11 09:00 30.2 24 7.36 7.7 15 1013.1 0 16.3 20.1 28.6 74.9 67.2 231.1
10 09:00 29.5 32 9.45 11.3 19 1013.1 0 20.6 22.9 35.6 93.5 90.0 311.0
09 09:00 29.9 37 11.16 14 6 1013.1 0 24.1 25.2 41.3 108.7 108.8 377.0
08 09:00 30.3 31 9.56 11.3 15 1013.1 0 20.8 22.9 35.6 93.6 90.3 312.2
07 09:00 30.2 22 6.75 6.5 26 1013.1 0 15.0 19.3 26.8 69.9 61.1 209.6
06 09:00 29.2 20 5.81 3.9 0 1013.1 0 13.1 18.3 24.3 63.2 52.6 179.4
05 09:00 26.8 29 7.38 7.3 6 1013.1 0 16.5 20.8 29.9 78.1 70.3 241.5
04 09:00 25.8 32 7.7 7.9 6 1013.1 0 17.2 21.5 31.3 81.9 74.6 256.5
03 09:00 24 58 12.62 15.4 22 1013.1 0 27.5 29.2 50.1 132.1 135.9 471.1

Last Refresh: 15-Jun-2024 00:33:49

Bureau of Meteorology